sensor_id;sensor_type;location;lat;lon;timestamp;pressure;altitude;pressure_sealevel;temperature;humidity
55590;BME280;41452;42.780;23.116;2023-02-21T00:01:00;94777.06;;;3.73;75.00
55590;BME280;41452;42.780;23.116;2023-02-21T00:03:44;94775.31;;;3.73;75.95
55590;BME280;41452;42.780;23.116;2023-02-21T00:06:27;94776.44;;;3.71;75.65
55590;BME280;41452;42.780;23.116;2023-02-21T00:09:11;94774.47;;;3.73;75.99
55590;BME280;41452;42.780;23.116;2023-02-21T00:11:55;94775.81;;;3.69;75.64
55590;BME280;41452;42.780;23.116;2023-02-21T00:14:39;94767.13;;;3.61;75.88
55590;BME280;41452;42.780;23.116;2023-02-21T00:17:23;94772.16;;;3.63;75.77
55590;BME280;41452;42.780;23.116;2023-02-21T00:20:08;94762.38;;;3.65;75.73
55590;BME280;41452;42.780;23.116;2023-02-21T00:22:52;94767.94;;;3.62;75.85
55590;BME280;41452;42.780;23.116;2023-02-21T00:25:36;94759.34;;;3.61;76.47
55590;BME280;41452;42.780;23.116;2023-02-21T00:28:20;94766.50;;;3.59;76.14
55590;BME280;41452;42.780;23.116;2023-02-21T00:31:04;94761.94;;;3.61;76.05
55590;BME280;41452;42.780;23.116;2023-02-21T00:33:48;94748.03;;;3.54;75.91
55590;BME280;41452;42.780;23.116;2023-02-21T00:36:32;94761.31;;;3.59;76.11
55590;BME280;41452;42.780;23.116;2023-02-21T00:39:16;94760.50;;;3.59;76.22
55590;BME280;41452;42.780;23.116;2023-02-21T00:42:00;94719.53;;;3.31;76.32
55590;BME280;41452;42.780;23.116;2023-02-21T00:44:44;94749.84;;;3.54;76.15
55590;BME280;41452;42.780;23.116;2023-02-21T00:47:28;94741.78;;;3.49;76.36
55590;BME280;41452;42.780;23.116;2023-02-21T00:50:12;94737.19;;;3.51;76.29
55590;BME280;41452;42.780;23.116;2023-02-21T00:52:56;94707.72;;;3.43;76.15
55590;BME280;41452;42.780;23.116;2023-02-21T00:55:40;94718.13;;;3.58;76.28
55590;BME280;41452;42.780;23.116;2023-02-21T00:58:24;94711.63;;;3.63;76.08
55590;BME280;41452;42.780;23.116;2023-02-21T01:01:08;94710.09;;;3.68;76.05
55590;BME280;41452;42.780;23.116;2023-02-21T01:03:52;94695.75;;;3.72;75.39
55590;BME280;41452;42.780;23.116;2023-02-21T01:06:36;94691.72;;;3.70;75.62
55590;BME280;41452;42.780;23.116;2023-02-21T01:09:20;94685.53;;;3.71;75.98
55590;BME280;41452;42.780;23.116;2023-02-21T01:12:04;94689.75;;;3.72;75.35
55590;BME280;41452;42.780;23.116;2023-02-21T01:14:48;94688.22;;;3.77;75.55
55590;BME280;41452;42.780;23.116;2023-02-21T01:17:32;94664.41;;;3.59;75.05
55590;BME280;41452;42.780;23.116;2023-02-21T01:20:16;94685.28;;;3.80;74.70
55590;BME280;41452;42.780;23.116;2023-02-21T01:23:00;94679.09;;;3.81;74.76
55590;BME280;41452;42.780;23.116;2023-02-21T01:25:44;94661.53;;;3.69;75.00
55590;BME280;41452;42.780;23.116;2023-02-21T01:28:28;94670.03;;;3.77;75.68
55590;BME280;41452;42.780;23.116;2023-02-21T01:31:19;94668.53;;;3.68;75.54
55590;BME280;41452;42.780;23.116;2023-02-21T01:34:04;94638.78;;;3.56;75.47
55590;BME280;41452;42.780;23.116;2023-02-21T01:36:48;94668.81;;;3.73;75.80
55590;BME280;41452;42.780;23.116;2023-02-21T01:39:31;94659.72;;;3.69;75.61
55590;BME280;41452;42.780;23.116;2023-02-21T01:42:17;94665.47;;;3.79;75.65
55590;BME280;41452;42.780;23.116;2023-02-21T01:45:33;94656.00;;;3.72;75.68
55590;BME280;41452;42.780;23.116;2023-02-21T01:48:23;94657.13;;;3.69;75.93
55590;BME280;41452;42.780;23.116;2023-02-21T01:51:09;94649.91;;;3.65;76.39
55590;BME280;41452;42.780;23.116;2023-02-21T01:53:54;94649.91;;;3.65;76.04
55590;BME280;41452;42.780;23.116;2023-02-21T01:56:38;94648.91;;;3.66;76.01
55590;BME280;41452;42.780;23.116;2023-02-21T01:59:24;94648.38;;;3.70;75.58
55590;BME280;41452;42.780;23.116;2023-02-21T02:02:26;94641.81;;;3.74;75.61
55590;BME280;41452;42.780;23.116;2023-02-21T02:05:12;94615.97;;;3.66;76.09
55590;BME280;41452;42.780;23.116;2023-02-21T02:07:56;94623.28;;;3.77;75.30
55590;BME280;41452;42.780;23.116;2023-02-21T02:10:41;94605.56;;;3.66;75.83
55590;BME280;41452;42.780;23.116;2023-02-21T02:16:19;94631.88;;;3.78;75.42
55590;BME280;41452;42.780;23.116;2023-02-21T02:18:59;94626.59;;;3.71;75.47
55590;BME280;41452;42.780;23.116;2023-02-21T02:24:20;94626.84;;;3.76;75.61
55590;BME280;41452;42.780;23.116;2023-02-21T02:30:11;94624.38;;;3.68;75.94
55590;BME280;41452;42.780;23.116;2023-02-21T02:35:37;94628.69;;;3.61;76.03
55590;BME280;41452;42.780;23.116;2023-02-21T02:41:07;94626.97;;;3.68;75.81
55590;BME280;41452;42.780;23.116;2023-02-21T02:43:41;94626.06;;;3.61;75.93
55590;BME280;41452;42.780;23.116;2023-02-21T02:48:44;94630.91;;;3.64;75.61
55590;BME280;41452;42.780;23.116;2023-02-21T02:51:12;94630.91;;;3.64;75.25
55590;BME280;41452;42.780;23.116;2023-02-21T02:53:39;94626.69;;;3.63;75.19
55590;BME280;41452;42.780;23.116;2023-02-21T02:56:09;94620.88;;;3.61;75.68
55590;BME280;41452;42.780;23.116;2023-02-21T02:58:42;94629.13;;;3.65;75.59
55590;BME280;41452;42.780;23.116;2023-02-21T03:06:50;94605.38;;;3.68;75.47
55590;BME280;41452;42.780;23.116;2023-02-21T03:14:59;94601.53;;;3.49;76.04
55590;BME280;41452;42.780;23.116;2023-02-21T03:17:29;94611.22;;;3.40;76.70
55590;BME280;41452;42.780;23.116;2023-02-21T03:19:57;94606.09;;;3.32;76.64
55590;BME280;41452;42.780;23.116;2023-02-21T03:22:27;94607.28;;;3.29;76.83
55590;BME280;41452;42.780;23.116;2023-02-21T03:24:55;94598.88;;;3.27;76.74
55590;BME280;41452;42.780;23.116;2023-02-21T03:27:24;94601.81;;;3.24;77.08
55590;BME280;41452;42.780;23.116;2023-02-21T03:29:52;94594.03;;;3.24;77.26
55590;BME280;41452;42.780;23.116;2023-02-21T03:32:29;94600.81;;;3.25;77.33
55590;BME280;41452;42.780;23.116;2023-02-21T03:34:56;94603.88;;;3.29;77.12
55590;BME280;41452;42.780;23.116;2023-02-21T03:37:42;94611.00;;;3.27;77.51
55590;BME280;41452;42.780;23.116;2023-02-21T03:40:14;94607.97;;;3.23;77.11
55590;BME280;41452;42.780;23.116;2023-02-21T03:42:40;94604.47;;;3.16;77.66
55590;BME280;41452;42.780;23.116;2023-02-21T03:45:06;94608.88;;;3.15;77.50
55590;BME280;41452;42.780;23.116;2023-02-21T03:47:31;94616.56;;;3.09;77.47
55590;BME280;41452;42.780;23.116;2023-02-21T03:49:57;94608.75;;;3.09;77.57
55590;BME280;41452;42.780;23.116;2023-02-21T03:52:22;94614.69;;;3.02;77.52
55590;BME280;41452;42.780;23.116;2023-02-21T03:54:47;94613.59;;;2.97;78.33
55590;BME280;41452;42.780;23.116;2023-02-21T03:57:13;94615.91;;;2.92;77.87
55590;BME280;41452;42.780;23.116;2023-02-21T03:59:38;94618.50;;;2.92;77.84
55590;BME280;41452;42.780;23.116;2023-02-21T04:02:04;94618.06;;;2.88;78.00
55590;BME280;41452;42.780;23.116;2023-02-21T04:04:29;94617.78;;;2.83;78.21
55590;BME280;41452;42.780;23.116;2023-02-21T04:06:55;94613.22;;;2.85;78.64
55590;BME280;41452;42.780;23.116;2023-02-21T04:09:20;94600.88;;;2.87;78.55
55590;BME280;41452;42.780;23.116;2023-02-21T04:11:46;94606.50;;;2.91;78.80
55590;BME280;41452;42.780;23.116;2023-02-21T04:14:12;94610.56;;;2.93;78.58
55590;BME280;41452;42.780;23.116;2023-02-21T04:16:38;94579.53;;;2.77;78.43
55590;BME280;41452;42.780;23.116;2023-02-21T04:19:04;94622.81;;;2.99;78.26
55590;BME280;41452;42.780;23.116;2023-02-21T04:21:29;94626.81;;;3.02;78.06
55590;BME280;41452;42.780;23.116;2023-02-21T04:23:55;94632.13;;;3.09;77.74
55590;BME280;41452;42.780;23.116;2023-02-21T04:26:21;94633.03;;;3.16;77.09
55590;BME280;41452;42.780;23.116;2023-02-21T04:28:48;94641.88;;;3.21;77.14
55590;BME280;41452;42.780;23.116;2023-02-21T04:31:15;94627.31;;;3.20;77.10
55590;BME280;41452;42.780;23.116;2023-02-21T04:33:41;94600.63;;;2.97;76.38
55590;BME280;41452;42.780;23.116;2023-02-21T04:36:06;94637.25;;;3.32;76.40
55590;BME280;41452;42.780;23.116;2023-02-21T04:38:32;94621.28;;;3.05;76.53
55590;BME280;41452;42.780;23.116;2023-02-21T04:40:57;94638.44;;;3.29;75.77
55590;BME280;41452;42.780;23.116;2023-02-21T04:43:22;94643.63;;;3.29;76.14
55590;BME280;41452;42.780;23.116;2023-02-21T04:45:48;94630.47;;;3.31;75.87
55590;BME280;41452;42.780;23.116;2023-02-21T04:48:13;94615.94;;;3.21;75.87
55590;BME280;41452;42.780;23.116;2023-02-21T04:50:38;94646.66;;;3.33;75.62
55590;BME280;41452;42.780;23.116;2023-02-21T04:53:04;94633.84;;;3.31;75.49
55590;BME280;41452;42.780;23.116;2023-02-21T04:55:29;94584.41;;;2.95;75.86
55590;BME280;41452;42.780;23.116;2023-02-21T04:57:54;94626.75;;;3.25;75.70
55590;BME280;41452;42.780;23.116;2023-02-21T05:00:20;94593.91;;;3.02;75.76
55590;BME280;41452;42.780;23.116;2023-02-21T05:02:46;94621.41;;;3.12;76.46
55590;BME280;41452;42.780;23.116;2023-02-21T05:05:12;94620.78;;;3.10;76.82
55590;BME280;41452;42.780;23.116;2023-02-21T05:07:40;94632.91;;;2.94;77.36
55590;BME280;41452;42.780;23.116;2023-02-21T05:10:06;94622.34;;;2.81;77.62
55590;BME280;41452;42.780;23.116;2023-02-21T05:12:32;94631.03;;;2.88;78.07
55590;BME280;41452;42.780;23.116;2023-02-21T05:14:57;94637.91;;;2.81;78.59
55590;BME280;41452;42.780;23.116;2023-02-21T05:17:23;94632.00;;;2.87;77.73
55590;BME280;41452;42.780;23.116;2023-02-21T05:19:49;94623.53;;;2.93;77.32
55590;BME280;41452;42.780;23.116;2023-02-21T05:22:15;94619.41;;;2.99;77.14
55590;BME280;41452;42.780;23.116;2023-02-21T05:24:44;94621.72;;;2.94;76.60
55590;BME280;41452;42.780;23.116;2023-02-21T05:27:11;94612.00;;;2.73;77.86
55590;BME280;41452;42.780;23.116;2023-02-21T05:29:49;94562.44;;;2.30;77.88
55590;BME280;41452;42.780;23.116;2023-02-21T05:32:17;94616.03;;;2.75;77.97
55590;BME280;41452;42.780;23.116;2023-02-21T05:34:42;94619.75;;;2.81;77.78
55590;BME280;41452;42.780;23.116;2023-02-21T05:37:11;94601.16;;;2.54;78.19
55590;BME280;41452;42.780;23.116;2023-02-21T05:39:37;94619.63;;;2.74;78.22
55590;BME280;41452;42.780;23.116;2023-02-21T05:42:03;94624.47;;;2.77;78.03
55590;BME280;41452;42.780;23.116;2023-02-21T05:44:29;94624.22;;;2.87;77.85
55590;BME280;41452;42.780;23.116;2023-02-21T05:46:54;94626.63;;;2.89;77.60
55590;BME280;41452;42.780;23.116;2023-02-21T05:49:20;94627.47;;;3.04;77.22
55590;BME280;41452;42.780;23.116;2023-02-21T05:51:45;94625.34;;;3.08;77.51
55590;BME280;41452;42.780;23.116;2023-02-21T05:54:18;94627.84;;;3.16;76.98
55590;BME280;41452;42.780;23.116;2023-02-21T05:56:46;94632.34;;;3.22;76.80
55590;BME280;41452;42.780;23.116;2023-02-21T05:59:12;94647.13;;;3.36;76.76
55590;BME280;41452;42.780;23.116;2023-02-21T06:01:38;94638.59;;;3.42;76.60
55590;BME280;41452;42.780;23.116;2023-02-21T06:04:04;94610.50;;;3.31;76.76
55590;BME280;41452;42.780;23.116;2023-02-21T06:06:34;94649.91;;;3.65;76.68
55590;BME280;41452;42.780;23.116;2023-02-21T06:09:00;94657.53;;;3.66;76.68
55590;BME280;41452;42.780;23.116;2023-02-21T06:11:28;94652.47;;;3.79;77.11
55590;BME280;41452;42.780;23.116;2023-02-21T06:13:58;94644.88;;;3.93;75.77
55590;BME280;41452;42.780;23.116;2023-02-21T06:16:24;94651.38;;;4.04;74.95
55590;BME280;41452;42.780;23.116;2023-02-21T06:18:51;94654.31;;;4.15;73.16
55590;BME280;41452;42.780;23.116;2023-02-21T06:21:16;94640.94;;;4.18;73.20
55590;BME280;41452;42.780;23.116;2023-02-21T06:23:42;94645.88;;;4.28;73.07
55590;BME280;41452;42.780;23.116;2023-02-21T06:26:07;94648.09;;;4.31;72.85
55590;BME280;41452;42.780;23.116;2023-02-21T06:28:32;94649.88;;;4.31;73.04
55590;BME280;41452;42.780;23.116;2023-02-21T06:30:58;94630.81;;;4.24;73.47
55590;BME280;41452;42.780;23.116;2023-02-21T06:33:23;94652.75;;;4.36;73.11
55590;BME280;41452;42.780;23.116;2023-02-21T06:35:49;94623.81;;;4.24;72.44
55590;BME280;41452;42.780;23.116;2023-02-21T06:38:14;94655.47;;;4.49;72.46
55590;BME280;41452;42.780;23.116;2023-02-21T06:40:40;94650.91;;;4.51;72.83
55590;BME280;41452;42.780;23.116;2023-02-21T06:43:05;94657.16;;;4.57;72.35
55590;BME280;41452;42.780;23.116;2023-02-21T06:45:30;94660.06;;;4.69;72.21
55590;BME280;41452;42.780;23.116;2023-02-21T06:47:56;94654.84;;;4.69;72.01
55590;BME280;41452;42.780;23.116;2023-02-21T06:50:21;94662.19;;;4.80;71.29
55590;BME280;41452;42.780;23.116;2023-02-21T06:52:47;94657.47;;;4.90;70.51
55590;BME280;41452;42.780;23.116;2023-02-21T06:55:12;94660.00;;;5.05;70.14
55590;BME280;41452;42.780;23.116;2023-02-21T06:57:37;94663.09;;;5.16;69.50
55590;BME280;41452;42.780;23.116;2023-02-21T07:00:04;94657.41;;;5.33;68.66
55590;BME280;41452;42.780;23.116;2023-02-21T07:02:30;94657.66;;;5.45;68.22
55590;BME280;41452;42.780;23.116;2023-02-21T07:04:55;94653.34;;;5.52;68.80
55590;BME280;41452;42.780;23.116;2023-02-21T07:07:21;94663.50;;;5.76;67.80
55590;BME280;41452;42.780;23.116;2023-02-21T07:09:46;94662.38;;;5.92;67.18
55590;BME280;41452;42.780;23.116;2023-02-21T07:12:12;94666.03;;;6.04;66.89
55590;BME280;41452;42.780;23.116;2023-02-21T07:14:37;94661.44;;;5.99;66.26
55590;BME280;41452;42.780;23.116;2023-02-21T07:17:03;94658.81;;;5.99;67.22
55590;BME280;41452;42.780;23.116;2023-02-21T07:19:28;94662.88;;;6.08;67.12
55590;BME280;41452;42.780;23.116;2023-02-21T07:21:53;94660.25;;;6.08;67.24
55590;BME280;41452;42.780;23.116;2023-02-21T07:24:19;94661.88;;;6.09;66.17
55590;BME280;41452;42.780;23.116;2023-02-21T07:26:44;94654.25;;;6.08;66.88
55590;BME280;41452;42.780;23.116;2023-02-21T07:29:10;94648.81;;;6.03;66.74
55590;BME280;41452;42.780;23.116;2023-02-21T07:31:35;94643.97;;;6.00;66.68
55590;BME280;41452;42.780;23.116;2023-02-21T07:34:00;94637.59;;;6.02;66.63
55590;BME280;41452;42.780;23.116;2023-02-21T07:36:26;94637.16;;;6.05;67.00
55590;BME280;41452;42.780;23.116;2023-02-21T07:38:51;94629.41;;;6.19;67.29
55590;BME280;41452;42.780;23.116;2023-02-21T07:41:16;94626.25;;;6.37;67.71
55590;BME280;41452;42.780;23.116;2023-02-21T07:43:42;94587.28;;;6.28;67.48
55590;BME280;41452;42.780;23.116;2023-02-21T07:46:11;94625.31;;;6.71;66.03
55590;BME280;41452;42.780;23.116;2023-02-21T07:48:37;94628.75;;;6.92;66.50
55590;BME280;41452;42.780;23.116;2023-02-21T07:51:03;94628.16;;;7.16;66.03
55590;BME280;41452;42.780;23.116;2023-02-21T07:53:30;94627.13;;;7.37;64.81
55590;BME280;41452;42.780;23.116;2023-02-21T07:55:55;94614.63;;;7.59;63.49
55590;BME280;41452;42.780;23.116;2023-02-21T07:58:20;94609.72;;;7.83;63.29
55590;BME280;41452;42.780;23.116;2023-02-21T08:00:46;94601.19;;;8.01;61.81
55590;BME280;41452;42.780;23.116;2023-02-21T08:03:12;94610.16;;;8.25;61.41
55590;BME280;41452;42.780;23.116;2023-02-21T08:05:38;94599.81;;;8.44;61.00
55590;BME280;41452;42.780;23.116;2023-02-21T08:08:08;94600.50;;;8.64;59.28
55590;BME280;41452;42.780;23.116;2023-02-21T08:10:34;94595.94;;;8.85;59.86
55590;BME280;41452;42.780;23.116;2023-02-21T08:12:59;94600.13;;;8.92;57.65
55590;BME280;41452;42.780;23.116;2023-02-21T08:15:25;94596.16;;;9.08;57.79
55590;BME280;41452;42.780;23.116;2023-02-21T08:17:50;94581.78;;;9.36;56.27
55590;BME280;41452;42.780;23.116;2023-02-21T08:20:16;94583.88;;;9.52;55.73
55590;BME280;41452;42.780;23.116;2023-02-21T08:22:42;94593.13;;;9.74;56.15
55590;BME280;41452;42.780;23.116;2023-02-21T08:25:09;94588.66;;;9.93;55.01
55590;BME280;41452;42.780;23.116;2023-02-21T08:27:38;94589.66;;;10.10;52.02
55590;BME280;41452;42.780;23.116;2023-02-21T08:30:04;94589.53;;;10.23;53.47
55590;BME280;41452;42.780;23.116;2023-02-21T08:32:29;94581.75;;;10.47;51.36
55590;BME280;41452;42.780;23.116;2023-02-21T08:34:55;94590.13;;;10.56;51.27
55590;BME280;41452;42.780;23.116;2023-02-21T08:37:20;94588.56;;;10.67;49.88
55590;BME280;41452;42.780;23.116;2023-02-21T08:39:46;94591.66;;;10.75;49.97
55590;BME280;41452;42.780;23.116;2023-02-21T08:42:12;94583.34;;;10.78;49.84
55590;BME280;41452;42.780;23.116;2023-02-21T08:44:38;94598.00;;;10.98;50.29
55590;BME280;41452;42.780;23.116;2023-02-21T08:47:03;94593.09;;;11.01;50.54
55590;BME280;41452;42.780;23.116;2023-02-21T08:49:29;94558.69;;;10.91;48.67
55590;BME280;41452;42.780;23.116;2023-02-21T08:51:54;94594.81;;;11.19;50.41
55590;BME280;41452;42.780;23.116;2023-02-21T08:54:19;94566.03;;;11.25;48.76
55590;BME280;41452;42.780;23.116;2023-02-21T08:56:45;94578.81;;;11.45;49.28
55590;BME280;41452;42.780;23.116;2023-02-21T08:59:10;94577.56;;;11.59;48.59
55590;BME280;41452;42.780;23.116;2023-02-21T09:01:35;94576.75;;;11.58;47.70
55590;BME280;41452;42.780;23.116;2023-02-21T09:04:02;94582.00;;;11.58;47.07
55590;BME280;41452;42.780;23.116;2023-02-21T09:06:28;94576.03;;;11.63;48.33
55590;BME280;41452;42.780;23.116;2023-02-21T09:08:54;94567.69;;;11.66;47.79
55590;BME280;41452;42.780;23.116;2023-02-21T09:11:19;94574.25;;;11.64;48.08
55590;BME280;41452;42.780;23.116;2023-02-21T09:13:45;94555.22;;;11.61;47.61
55590;BME280;41452;42.780;23.116;2023-02-21T09:16:10;94577.16;;;11.79;47.97
55590;BME280;41452;42.780;23.116;2023-02-21T09:18:35;94563.91;;;11.86;48.91
55590;BME280;41452;42.780;23.116;2023-02-21T09:21:01;94562.38;;;11.90;46.99
55590;BME280;41452;42.780;23.116;2023-02-21T09:23:28;94566.88;;;12.01;47.67
55590;BME280;41452;42.780;23.116;2023-02-21T09:25:54;94564.41;;;12.11;47.01
55590;BME280;41452;42.780;23.116;2023-02-21T09:28:20;94566.69;;;12.20;47.88
55590;BME280;41452;42.780;23.116;2023-02-21T09:30:46;94556.34;;;12.30;46.85
55590;BME280;41452;42.780;23.116;2023-02-21T09:33:12;94568.09;;;12.39;45.74
55590;BME280;41452;42.780;23.116;2023-02-21T09:35:38;94551.19;;;12.35;46.94
55590;BME280;41452;42.780;23.116;2023-02-21T09:38:04;94532.75;;;12.35;44.71
55590;BME280;41452;42.780;23.116;2023-02-21T09:40:50;94547.78;;;12.51;45.12
55590;BME280;41452;42.780;23.116;2023-02-21T09:43:36;94547.53;;;12.53;44.78
55590;BME280;41452;42.780;23.116;2023-02-21T09:46:08;94526.53;;;12.41;44.34
55590;BME280;41452;42.780;23.116;2023-02-21T09:48:35;94546.91;;;12.63;44.33
55590;BME280;41452;42.780;23.116;2023-02-21T09:51:05;94547.31;;;12.71;44.70
55590;BME280;41452;42.780;23.116;2023-02-21T09:53:36;94537.19;;;12.80;43.28
55590;BME280;41452;42.780;23.116;2023-02-21T09:56:07;94532.63;;;12.92;44.05
55590;BME280;41452;42.780;23.116;2023-02-21T09:58:40;94532.81;;;13.03;42.84
55590;BME280;41452;42.780;23.116;2023-02-21T10:01:17;94528.78;;;13.17;43.89
55590;BME280;41452;42.780;23.116;2023-02-21T10:06:27;94524.31;;;13.35;41.26
55590;BME280;41452;42.780;23.116;2023-02-21T10:17:51;94507.19;;;13.54;40.69
55590;BME280;41452;42.780;23.116;2023-02-21T10:20:38;94504.16;;;13.67;39.55
55590;BME280;41452;42.780;23.116;2023-02-21T10:23:17;94498.34;;;13.65;40.21
55590;BME280;41452;42.780;23.116;2023-02-21T10:25:44;94496.78;;;13.69;40.07
55590;BME280;41452;42.780;23.116;2023-02-21T10:28:19;94488.63;;;13.71;39.73
55590;BME280;41452;42.780;23.116;2023-02-21T10:30:47;94497.22;;;13.83;39.59
55590;BME280;41452;42.780;23.116;2023-02-21T10:33:13;94492.78;;;13.89;39.11
55590;BME280;41452;42.780;23.116;2023-02-21T10:35:38;94494.28;;;14.02;40.64
55590;BME280;41452;42.780;23.116;2023-02-21T10:38:13;94482.34;;;13.99;40.68
55590;BME280;41452;42.780;23.116;2023-02-21T10:40:41;94481.97;;;14.13;38.87
55590;BME280;41452;42.780;23.116;2023-02-21T10:43:12;94466.94;;;14.13;39.64
55590;BME280;41452;42.780;23.116;2023-02-21T10:45:54;94477.59;;;14.23;38.94
55590;BME280;41452;42.780;23.116;2023-02-21T10:48:24;94473.19;;;14.34;40.45
55590;BME280;41452;42.780;23.116;2023-02-21T10:53:45;94469.88;;;14.49;39.38
55590;BME280;41452;42.780;23.116;2023-02-21T11:01:30;94453.13;;;14.60;37.17
55590;BME280;41452;42.780;23.116;2023-02-21T11:03:59;94440.78;;;14.71;36.86
55590;BME280;41452;42.780;23.116;2023-02-21T11:06:35;94426.31;;;14.84;37.80
55590;BME280;41452;42.780;23.116;2023-02-21T11:09:03;94429.06;;;14.99;36.85
55590;BME280;41452;42.780;23.116;2023-02-21T11:11:47;94427.28;;;15.10;37.19
55590;BME280;41452;42.780;23.116;2023-02-21T11:14:20;94414.09;;;15.20;38.31
55590;BME280;41452;42.780;23.116;2023-02-21T11:17:10;94404.13;;;15.38;36.98
55590;BME280;41452;42.780;23.116;2023-02-21T11:19:52;94407.84;;;15.47;37.75
55590;BME280;41452;42.780;23.116;2023-02-21T11:22:23;94410.56;;;15.63;37.04
55590;BME280;41452;42.780;23.116;2023-02-21T11:25:06;94396.03;;;15.65;37.00
55590;BME280;41452;42.780;23.116;2023-02-21T11:27:34;94397.88;;;15.70;36.63
55590;BME280;41452;42.780;23.116;2023-02-21T11:30:20;94393.38;;;15.70;36.44
55590;BME280;41452;42.780;23.116;2023-02-21T11:32:53;94378.59;;;15.74;36.94
55590;BME280;41452;42.780;23.116;2023-02-21T11:35:26;94363.44;;;15.49;34.48
55590;BME280;41452;42.780;23.116;2023-02-21T11:38:04;94379.28;;;15.44;35.58
55590;BME280;41452;42.780;23.116;2023-02-21T11:40:41;94377.22;;;15.56;35.97
55590;BME280;41452;42.780;23.116;2023-02-21T11:46:45;94368.22;;;15.63;36.64
55590;BME280;41452;42.780;23.116;2023-02-21T11:52:02;94366.16;;;15.75;36.03
55590;BME280;41452;42.780;23.116;2023-02-21T11:54:30;94363.53;;;15.80;35.09
55590;BME280;41452;42.780;23.116;2023-02-21T11:57:19;94355.84;;;15.78;35.25
55590;BME280;41452;42.780;23.116;2023-02-21T12:02:26;94339.19;;;15.88;35.45
55590;BME280;41452;42.780;23.116;2023-02-21T12:05:12;94333.34;;;15.96;36.02
55590;BME280;41452;42.780;23.116;2023-02-21T12:08:10;94328.84;;;16.02;34.79
55590;BME280;41452;42.780;23.116;2023-02-21T12:10:59;94321.97;;;16.06;34.15
55590;BME280;41452;42.780;23.116;2023-02-21T12:14:06;94303.19;;;16.08;34.71
55590;BME280;41452;42.780;23.116;2023-02-21T12:24:59;94306.31;;;16.30;33.57
55590;BME280;41452;42.780;23.116;2023-02-21T12:27:45;94297.31;;;16.42;33.59
55590;BME280;41452;42.780;23.116;2023-02-21T12:30:34;94290.41;;;16.46;32.08
55590;BME280;41452;42.780;23.116;2023-02-21T12:44:15;94287.69;;;16.87;31.23
55590;BME280;41452;42.780;23.116;2023-02-21T12:46:52;94279.19;;;16.90;31.03
55590;BME280;41452;42.780;23.116;2023-02-21T12:49:28;94276.50;;;17.00;30.36
55590;BME280;41452;42.780;23.116;2023-02-21T12:52:00;94266.38;;;17.07;31.37
55590;BME280;41452;42.780;23.116;2023-02-21T12:54:40;94243.84;;;17.00;30.83
55590;BME280;41452;42.780;23.116;2023-02-21T12:57:12;94269.03;;;17.13;30.70
55590;BME280;41452;42.780;23.116;2023-02-21T13:00:00;94267.44;;;17.06;30.33
55590;BME280;41452;42.780;23.116;2023-02-21T13:05:39;94259.41;;;17.27;31.11
55590;BME280;41452;42.780;23.116;2023-02-21T13:08:22;94260.63;;;17.45;30.64
55590;BME280;41452;42.780;23.116;2023-02-21T13:11:10;94253.91;;;17.53;30.12
55590;BME280;41452;42.780;23.116;2023-02-21T13:13:38;94226.44;;;17.33;28.83
55590;BME280;41452;42.780;23.116;2023-02-21T13:16:06;94236.75;;;17.40;29.62
55590;BME280;41452;42.780;23.116;2023-02-21T13:18:54;94249.19;;;17.44;29.16
55590;BME280;41452;42.780;23.116;2023-02-21T13:29:49;94245.78;;;17.39;28.92
55590;BME280;41452;42.780;23.116;2023-02-21T13:32:18;94237.53;;;17.40;28.27
55590;BME280;41452;42.780;23.116;2023-02-21T13:34:52;94232.25;;;17.35;28.08
55590;BME280;41452;42.780;23.116;2023-02-21T13:37:25;94234.38;;;17.38;28.38
55590;BME280;41452;42.780;23.116;2023-02-21T13:39:54;94223.75;;;17.38;29.08
55590;BME280;41452;42.780;23.116;2023-02-21T13:42:23;94231.19;;;17.36;28.72
55590;BME280;41452;42.780;23.116;2023-02-21T13:53:16;94219.22;;;17.39;27.74
55590;BME280;41452;42.780;23.116;2023-02-21T13:56:12;94223.00;;;17.33;25.19
55590;BME280;41452;42.780;23.116;2023-02-21T13:58:48;94219.75;;;17.41;26.12
55590;BME280;41452;42.780;23.116;2023-02-21T14:03:54;94211.63;;;17.27;25.26
55590;BME280;41452;42.780;23.116;2023-02-21T14:06:28;94213.97;;;17.28;26.04
55590;BME280;41452;42.780;23.116;2023-02-21T14:08:58;94218.56;;;17.18;25.64
55590;BME280;41452;42.780;23.116;2023-02-21T14:11:28;94216.44;;;17.20;25.68
55590;BME280;41452;42.780;23.116;2023-02-21T14:13:59;94220.69;;;17.16;26.14
55590;BME280;41452;42.780;23.116;2023-02-21T14:16:46;94214.59;;;17.15;26.27
55590;BME280;41452;42.780;23.116;2023-02-21T14:19:23;94215.97;;;17.07;25.23
55590;BME280;41452;42.780;23.116;2023-02-21T14:22:02;94226.28;;;17.14;25.62
55590;BME280;41452;42.780;23.116;2023-02-21T14:24:35;94222.84;;;17.08;25.07
55590;BME280;41452;42.780;23.116;2023-02-21T14:27:04;94212.84;;;17.00;25.33
55590;BME280;41452;42.780;23.116;2023-02-21T14:32:24;94214.91;;;17.03;26.17
55590;BME280;41452;42.780;23.116;2023-02-21T14:34:54;94212.63;;;16.86;25.83
55590;BME280;41452;42.780;23.116;2023-02-21T15:04:02;94210.31;;;16.59;28.61
55590;BME280;41452;42.780;23.116;2023-02-21T15:06:33;94204.47;;;16.57;28.96
55590;BME280;41452;42.780;23.116;2023-02-21T15:09:10;94206.91;;;16.48;28.02
55590;BME280;41452;42.780;23.116;2023-02-21T15:11:37;94206.66;;;16.45;28.98
55590;BME280;41452;42.780;23.116;2023-02-21T15:16:59;94206.16;;;16.32;28.47
55590;BME280;41452;42.780;23.116;2023-02-21T15:19:33;94201.13;;;16.31;29.71
55590;BME280;41452;42.780;23.116;2023-02-21T15:27:32;94197.22;;;16.08;29.38
55590;BME280;41452;42.780;23.116;2023-02-21T15:32:42;94191.91;;;16.08;30.07
55590;BME280;41452;42.780;23.116;2023-02-21T15:35:15;94201.44;;;16.14;30.34
55590;BME280;41452;42.780;23.116;2023-02-21T15:37:44;94210.16;;;16.09;30.65
55590;BME280;41452;42.780;23.116;2023-02-21T15:40:16;94209.91;;;16.06;30.51